Crossville, Tennessee
Current Conditions -  °F | °C
As of 8:31 PM on Sunday 25 Jan 2015 (Local Time) from KCSV Reporting Station
Overcast Overcast  
Wind Chill: 38°   Ceiling: 1400
Heat Index: 43°   Visibility: 10mi
Dew Point: 39°   Wind: 8mph
Humidity: 86%   Direction: 230°SW
Pressure: 29.7"   Gusts: NA
Location:  35.95°N, 85.03°W
Report Text: KCSV 260231Z AUTO 23007KT 10SM BKN014 BKN019 OVC039 06/04 A2970 RMK AO2 T00610039
Loading
Personal Weather Stations






























Interactive Weather Map New forecast layout! Learn more

10-Day Weather Forecast

Advertisements
Track Severe Weather on mobile